createdAt,value
2022-08-05T00:01:35.908Z,99923.34
2022-08-05T00:04:19.224Z,99924.97
2022-08-05T00:06:47.540Z,99917.69
2022-08-05T00:09:23.367Z,99912.78
2022-08-05T00:11:55.898Z,99921.72
2022-08-05T00:14:28.974Z,99916.44
2022-08-05T00:16:58.289Z,99920.50
2022-08-05T00:19:33.432Z,99916.06
2022-08-05T00:22:04.305Z,99924.22
2022-08-05T00:24:31.612Z,99918.94
2022-08-05T00:26:59.865Z,99916.88
2022-08-05T00:29:37.729Z,99923.75
2022-08-05T00:32:12.410Z,99923.41
2022-08-05T00:34:53.258Z,99913.69
2022-08-05T00:37:21.960Z,99921.00
2022-08-05T00:39:58.468Z,99914.50
2022-08-05T00:42:34.084Z,99913.69
2022-08-05T00:45:01.971Z,99914.47
2022-08-05T00:47:31.772Z,99918.09
2022-08-05T00:50:18.557Z,99914.47
2022-08-05T00:52:47.740Z,99918.53
2022-08-05T00:55:14.915Z,99913.63
2022-08-05T00:57:58.089Z,99918.91
2022-08-05T01:00:28.566Z,99916.03
2022-08-05T01:02:56.872Z,99920.53
2022-08-05T01:05:24.305Z,99921.31
2022-08-05T01:08:30.788Z,99919.31
2022-08-05T01:10:52.150Z,99919.72
2022-08-05T01:13:58.303Z,99912.41
2022-08-05T01:16:40.885Z,99909.56
2022-08-05T01:19:56.151Z,99912.81
2022-08-05T01:22:59.098Z,99916.88
2022-08-05T01:26:02.616Z,99914.81
2022-08-05T01:28:57.491Z,99918.50
2022-08-05T01:31:51.574Z,99915.25
2022-08-05T01:34:33.083Z,99912.81
2022-08-05T01:37:25.031Z,99914.03
2022-08-05T01:39:59.122Z,99913.66
2022-08-05T01:42:29.768Z,99910.78
2022-08-05T01:44:59.192Z,99914.47
2022-08-05T01:47:32.550Z,99912.41
2022-08-05T01:50:15.190Z,99912.81
2022-08-05T01:52:50.096Z,99911.56
2022-08-05T01:55:20.831Z,99916.06
2022-08-05T01:58:11.958Z,99914.00
2022-08-05T02:00:43.069Z,99917.72
2022-08-05T02:03:34.203Z,99921.00
2022-08-05T02:06:33.531Z,99922.66
2022-08-05T02:08:57.801Z,99922.69
2022-08-05T02:11:33.659Z,99920.25
2022-08-05T02:14:12.982Z,99914.16
2022-08-05T02:16:52.458Z,99920.22
2022-08-05T02:19:34.446Z,99921.88
2022-08-05T02:22:25.677Z,99928.38
2022-08-05T02:25:08.794Z,99925.94
2022-08-05T02:27:59.671Z,99930.41
2022-08-05T02:30:38.791Z,99940.13
2022-08-05T02:33:24.482Z,99940.53
2022-08-05T02:36:05.387Z,99939.28
2022-08-05T02:38:35.502Z,99942.13
2022-08-05T02:41:06.462Z,99940.91
2022-08-05T02:44:02.486Z,99948.19
2022-08-05T02:46:34.416Z,99955.09
2022-08-05T02:49:04.224Z,99945.34
2022-08-05T02:52:03.781Z,99949.81
2022-08-05T02:54:35.755Z,99955.47
2022-08-05T02:57:09.805Z,99949.41
2022-08-05T02:59:56.322Z,99958.72
2022-08-05T03:02:29.097Z,99950.22
2022-08-05T03:04:58.137Z,99955.03
2022-08-05T03:08:01.930Z,99951.00
2022-08-05T03:10:24.520Z,99956.66
2022-08-05T03:12:52.118Z,99963.13
2022-08-05T03:15:21.128Z,99961.06
2022-08-05T03:17:54.216Z,99960.66
2022-08-05T03:20:23.655Z,99952.88
2022-08-05T03:22:52.261Z,99958.16
2022-08-05T03:26:02.652Z,99955.31
2022-08-05T03:28:09.284Z,99962.59
2022-08-05T03:30:38.320Z,99971.91
2022-08-05T03:33:08.500Z,99968.66
2022-08-05T03:35:40.509Z,99964.97
2022-08-05T03:38:14.511Z,99966.97
2022-08-05T03:40:45.253Z,99972.19
2022-08-05T03:44:08.633Z,99963.66
2022-08-05T03:46:04.901Z,99970.13
2022-08-05T03:48:35.091Z,99975.78
2022-08-05T03:52:38.329Z,99986.28
2022-08-05T03:55:06.959Z,99987.84
2022-08-05T03:57:29.006Z,99989.06
2022-08-05T04:00:08.848Z,99988.31
2022-08-05T04:02:52.002Z,99996.44
2022-08-05T04:05:27.891Z,99997.28
2022-08-05T04:08:05.760Z,99999.28
2022-08-05T04:10:51.044Z,99999.28
2022-08-05T04:13:27.717Z,99993.56
2022-08-05T04:16:14.375Z,100003.72
2022-08-05T04:18:41.521Z,99996.78
2022-08-05T04:21:11.147Z,100002.41
2022-08-05T04:24:04.817Z,100011.38
2022-08-05T04:26:25.680Z,100014.59
2022-08-05T04:29:07.143Z,100005.25
2022-08-05T04:31:38.417Z,99998.81
2022-08-05T04:34:19.726Z,100006.56
2022-08-05T04:37:00.813Z,100007.06
2022-08-05T04:39:30.075Z,100003.44
2022-08-05T04:41:57.613Z,100023.78
2022-08-05T04:44:29.509Z,100011.56
2022-08-05T04:46:58.988Z,100011.50
2022-08-05T04:49:38.446Z,100010.69
2022-08-05T04:52:14.278Z,100008.25
2022-08-05T04:54:44.484Z,100011.50
2022-08-05T04:57:11.315Z,100021.28
2022-08-05T04:59:39.045Z,100009.91
2022-08-05T05:02:36.230Z,100011.06
2022-08-05T05:05:02.344Z,100006.97
2022-08-05T05:07:32.677Z,100003.97
2022-08-05T05:10:02.259Z,100005.47
2022-08-05T05:12:30.403Z,100017.28
2022-08-05T05:14:57.290Z,100016.09
2022-08-05T05:17:55.719Z,100015.31
2022-08-05T05:20:12.887Z,100009.28
2022-08-05T05:22:41.132Z,100006.91
2022-08-05T05:25:16.110Z,100017.09
2022-08-05T05:27:53.689Z,100012.59
2022-08-05T05:30:29.173Z,100014.63
2022-08-05T05:33:00.659Z,100015.47
2022-08-05T05:35:34.449Z,100015.47
2022-08-05T05:38:09.096Z,100014.63
2022-08-05T05:40:42.534Z,100008.09
2022-08-05T05:43:15.257Z,100018.53
2022-08-05T05:45:49.556Z,100011.94
2022-08-05T05:48:16.341Z,100007.47
2022-08-05T05:50:44.219Z,100002.66
2022-08-05T05:53:22.147Z,100014.16
2022-08-05T05:55:52.413Z,100023.84
2022-08-05T05:58:31.484Z,100016.84
2022-08-05T06:01:12.368Z,100019.63
2022-08-05T06:04:01.038Z,100015.66
2022-08-05T06:06:30.821Z,100021.94
2022-08-05T06:08:58.759Z,100013.19
2022-08-05T06:11:26.029Z,100020.44
2022-08-05T06:13:55.411Z,100018.94
2022-08-05T06:16:30.124Z,100018.25
2022-08-05T06:19:01.223Z,100015.59
2022-08-05T06:21:36.131Z,100018.97
2022-08-05T06:24:11.543Z,100018.06
2022-08-05T06:26:45.902Z,100017.25
2022-08-05T06:29:25.525Z,100024.19
2022-08-05T06:32:21.043Z,100021.25
2022-08-05T06:34:48.525Z,100021.94
2022-08-05T06:37:56.163Z,100026.59
2022-08-05T06:40:08.073Z,100027.97
2022-08-05T06:42:34.964Z,100030.31
2022-08-05T06:45:05.506Z,100035.84
2022-08-05T06:48:44.209Z,100034.34
2022-08-05T06:50:22.198Z,100046.97
2022-08-05T06:52:58.736Z,100045.50
2022-08-05T06:55:36.441Z,100041.03
2022-08-05T06:58:19.892Z,100038.59
2022-08-05T07:00:51.526Z,100040.44
2022-08-05T07:03:18.428Z,100035.63
2022-08-05T07:05:46.356Z,100044.63
2022-08-05T07:08:13.720Z,100028.06
2022-08-05T07:10:52.502Z,100033.59
2022-08-05T07:13:59.871Z,100041.97
2022-08-05T07:17:59.256Z,100037.19
2022-08-05T07:22:29.064Z,100041.66
2022-08-05T07:25:09.541Z,100028.91
2022-08-05T07:27:57.064Z,100030.44
2022-08-05T07:30:32.068Z,100043.78
2022-08-05T07:33:00.934Z,100044.34
2022-08-05T07:36:03.728Z,100031.25
2022-08-05T07:38:32.483Z,100035.16
2022-08-05T07:42:07.481Z,100036.28
2022-08-05T07:43:50.471Z,100035.19
2022-08-05T07:46:20.745Z,100032.00
2022-08-05T07:49:02.217Z,100029.38
2022-08-05T07:51:40.293Z,100022.38
2022-08-05T07:54:09.841Z,100030.06
2022-08-05T07:57:00.162Z,100015.13
2022-08-05T07:59:38.625Z,100031.59
2022-08-05T08:02:16.809Z,100019.50
2022-08-05T08:04:46.650Z,100012.00
2022-08-05T08:07:15.058Z,100013.44
2022-08-05T08:09:42.616Z,100024.38
2022-08-05T08:12:30.606Z,100025.78
2022-08-05T08:14:57.378Z,100020.38
2022-08-05T08:17:31.719Z,100012.69
2022-08-05T08:20:21.382Z,100019.72
2022-08-05T08:22:54.714Z,100021.31
2022-08-05T08:25:27.134Z,100025.72
2022-08-05T08:28:18.542Z,100015.09
2022-08-05T08:30:48.040Z,100024.69
2022-08-05T08:33:19.300Z,100015.59
2022-08-05T08:35:53.778Z,100009.06
2022-08-05T08:38:32.143Z,100006.81
2022-08-05T08:41:08.652Z,100008.75
2022-08-05T08:45:20.238Z,100019.28
2022-08-05T08:46:27.569Z,100015.47
2022-08-05T08:49:07.487Z,100013.66
2022-08-05T08:52:05.596Z,100012.34
2022-08-05T08:54:36.264Z,100002.03
2022-08-05T08:57:11.607Z,100004.84
2022-08-05T08:59:41.947Z,100019.00
2022-08-05T09:02:16.666Z,100004.38
2022-08-05T09:04:58.271Z,100000.09
2022-08-05T09:07:39.938Z,100000.53
2022-08-05T09:10:20.299Z,100002.59
2022-08-05T09:12:50.900Z,99998.94
2022-08-05T09:15:18.289Z,100012.44
2022-08-05T09:17:49.856Z,99993.81
2022-08-05T09:20:36.778Z,99977.22
2022-08-05T09:23:07.933Z,99979.66
2022-08-05T09:26:00.818Z,99981.91
2022-08-05T09:28:32.420Z,99996.28
2022-08-05T09:31:23.255Z,99990.78
2022-08-05T09:34:05.680Z,99986.06
2022-08-05T09:36:56.234Z,99979.75
2022-08-05T09:39:39.222Z,99973.81
2022-08-05T09:42:20.183Z,99974.31
2022-08-05T09:44:56.003Z,99968.56
2022-08-05T09:47:48.379Z,99963.91
2022-08-05T09:50:18.166Z,99949.28
2022-08-05T09:53:01.783Z,99954.19
2022-08-05T09:55:57.917Z,99962.34
2022-08-05T09:58:22.686Z,99953.38
2022-08-05T10:01:15.405Z,99964.81
2022-08-05T10:04:10.462Z,99955.13
2022-08-05T10:06:40.696Z,99960.78
2022-08-05T10:09:25.167Z,99955.81
2022-08-05T10:11:56.231Z,99949.34
2022-08-05T10:14:26.705Z,99960.00
2022-08-05T10:16:56.571Z,99953.63
2022-08-05T10:20:02.762Z,99959.25
2022-08-05T10:22:25.323Z,99954.66
2022-08-05T10:24:57.537Z,99951.09
2022-08-05T10:27:26.039Z,99958.28
2022-08-05T10:31:20.479Z,99959.22
2022-08-05T10:33:01.661Z,99960.13
2022-08-05T10:35:33.674Z,99953.69
2022-08-05T10:38:08.773Z,99966.13
2022-08-05T10:40:49.911Z,99959.22
2022-08-05T10:43:57.939Z,99951.34
2022-08-05T10:46:43.116Z,99948.75
2022-08-05T10:49:16.432Z,99952.94
2022-08-05T10:52:00.404Z,99944.50
2022-08-05T10:55:02.126Z,99940.00
2022-08-05T10:57:31.966Z,99939.97
2022-08-05T11:00:16.112Z,99938.91
2022-08-05T11:03:26.006Z,99940.66
2022-08-05T11:06:15.048Z,99944.41
2022-08-05T11:09:10.888Z,99942.59
2022-08-05T11:11:52.568Z,99941.63
2022-08-05T11:14:57.766Z,99942.16
2022-08-05T11:18:00.053Z,99940.09
2022-08-05T11:20:39.124Z,99939.63
2022-08-05T11:24:05.717Z,99934.28
2022-08-05T11:26:28.836Z,99933.50
2022-08-05T11:29:06.626Z,99930.97
2022-08-05T11:31:56.778Z,99932.13
2022-08-05T11:34:51.420Z,99928.13
2022-08-05T11:38:26.403Z,99930.06
2022-08-05T11:41:03.577Z,99925.44
2022-08-05T11:44:06.328Z,99925.41
2022-08-05T11:46:57.946Z,99921.94
2022-08-05T11:49:24.967Z,99921.81
2022-08-05T11:51:53.776Z,99912.88
2022-08-05T11:54:33.431Z,99923.50
2022-08-05T11:57:08.723Z,99915.88
2022-08-05T11:59:50.835Z,99911.47
2022-08-05T12:02:23.868Z,99907.88
2022-08-05T12:04:59.568Z,99914.69
2022-08-05T12:08:02.713Z,99909.50
2022-08-05T12:10:20.178Z,99911.13
2022-08-05T12:12:59.260Z,99909.13
2022-08-05T12:15:37.962Z,99908.72
2022-08-05T12:18:10.886Z,99912.75
2022-08-05T12:20:38.979Z,99913.91
2022-08-05T12:23:10.496Z,99913.91
2022-08-05T12:25:56.772Z,99912.66
2022-08-05T12:28:38.001Z,99908.16
2022-08-05T12:31:05.905Z,99907.00
2022-08-05T12:33:37.222Z,99911.53
2022-08-05T12:36:09.580Z,99905.13
2022-08-05T12:38:42.130Z,99907.94
2022-08-05T12:41:12.856Z,99909.25
2022-08-05T12:43:50.866Z,99899.84
2022-08-05T12:46:31.982Z,99906.13
2022-08-05T12:49:05.876Z,99906.25
2022-08-05T12:52:14.331Z,99895.66
2022-08-05T12:54:41.888Z,99893.25
2022-08-05T12:57:13.001Z,99899.56
2022-08-05T13:01:58.135Z,99885.91
2022-08-05T13:02:41.716Z,99885.88
2022-08-05T13:05:12.745Z,99884.09
2022-08-05T13:08:00.264Z,99889.44
2022-08-05T13:10:31.784Z,99878.59
2022-08-05T13:13:01.056Z,99883.41
2022-08-05T13:15:35.761Z,99875.41
2022-08-05T13:18:08.660Z,99876.34
2022-08-05T13:20:40.450Z,99872.47
2022-08-05T13:23:07.818Z,99870.53
2022-08-05T13:25:52.301Z,99869.75
2022-08-05T13:28:22.387Z,99878.56
2022-08-05T13:30:51.116Z,99885.53
2022-08-05T13:34:21.356Z,99876.19
2022-08-05T13:36:06.945Z,99871.72
2022-08-05T13:38:42.036Z,99877.47
2022-08-05T13:41:13.181Z,99876.25
2022-08-05T13:43:45.266Z,99861.88
2022-08-05T13:46:50.557Z,99864.94
2022-08-05T13:49:12.954Z,99858.72
2022-08-05T13:51:45.833Z,99858.28
2022-08-05T13:54:15.405Z,99855.31
2022-08-05T13:56:44.909Z,99858.25
2022-08-05T13:59:19.317Z,99851.38
2022-08-05T14:01:56.744Z,99845.66
2022-08-05T14:04:51.924Z,99850.94
2022-08-05T14:08:03.040Z,99845.50
2022-08-05T14:10:28.696Z,99855.72
2022-08-05T14:12:57.122Z,99849.25
2022-08-05T14:16:08.863Z,99846.06
2022-08-05T14:18:17.370Z,99847.88
2022-08-05T14:20:48.832Z,99845.66
2022-08-05T14:23:19.240Z,99837.31
2022-08-05T14:25:59.127Z,99840.09
2022-08-05T14:28:30.435Z,99843.91
2022-08-05T14:30:59.067Z,99837.34
2022-08-05T14:33:26.273Z,99839.84
2022-08-05T14:35:54.523Z,99835.03
2022-08-05T14:38:31.884Z,99836.41
2022-08-05T14:41:07.671Z,99836.84
2022-08-05T14:43:57.516Z,99823.78
2022-08-05T14:46:30.698Z,99827.22
2022-08-05T14:49:06.325Z,99822.16
2022-08-05T14:51:36.346Z,99829.25
2022-08-05T14:54:27.411Z,99826.41
2022-08-05T14:56:54.643Z,99821.56
2022-08-05T14:59:22.060Z,99815.47
2022-08-05T15:01:49.956Z,99819.63
2022-08-05T15:04:22.283Z,99816.75
2022-08-05T15:06:51.003Z,99817.19
2022-08-05T15:09:51.305Z,99821.34
2022-08-05T15:12:11.587Z,99828.31
2022-08-05T15:14:49.625Z,99825.56
2022-08-05T15:17:46.469Z,99826.81
2022-08-05T15:20:17.109Z,99831.41
2022-08-05T15:22:54.081Z,99824.97
2022-08-05T15:25:40.980Z,99836.00
2022-08-05T15:28:13.329Z,99833.19
2022-08-05T15:30:43.636Z,99824.34
2022-08-05T15:33:12.746Z,99828.69
2022-08-05T15:35:59.512Z,99824.19
2022-08-05T15:38:35.599Z,99820.16
2022-08-05T15:41:23.120Z,99820.63
2022-08-05T15:43:50.455Z,99823.13
2022-08-05T15:46:19.976Z,99820.53
2022-08-05T15:48:53.012Z,99823.72
2022-08-05T15:52:12.887Z,99821.31
2022-08-05T15:54:16.427Z,99823.03
2022-08-05T15:56:43.620Z,99830.50
2022-08-05T15:59:20.285Z,99827.25
2022-08-05T16:01:52.944Z,99822.97
2022-08-05T16:04:25.681Z,99834.91
2022-08-05T16:06:56.527Z,99836.69
2022-08-05T16:09:25.426Z,99839.22
2022-08-05T16:11:54.018Z,99831.09
2022-08-05T16:14:22.403Z,99834.03
2022-08-05T16:16:49.670Z,99837.44
2022-08-05T16:19:19.169Z,99842.41
2022-08-05T16:22:03.991Z,99847.41
2022-08-05T16:24:41.007Z,99848.25
2022-08-05T16:27:47.245Z,99838.59
2022-08-05T16:30:08.436Z,99838.28
2022-08-05T16:32:50.621Z,99844.91
2022-08-05T16:35:17.558Z,99847.75
2022-08-05T16:38:15.678Z,99846.56
2022-08-05T16:40:55.682Z,99837.72
2022-08-05T16:43:28.462Z,99846.78
2022-08-05T16:46:07.765Z,99854.66
2022-08-05T16:48:42.816Z,99853.47
2022-08-05T16:51:10.785Z,99847.41
2022-08-05T16:54:06.139Z,99859.78
2022-08-05T16:56:28.042Z,99858.69
2022-08-05T16:58:55.156Z,99857.97
2022-08-05T17:01:22.182Z,99863.78
2022-08-05T17:03:52.085Z,99858.16
2022-08-05T17:06:19.573Z,99864.06
2022-08-05T17:08:53.000Z,99859.19
2022-08-05T17:11:23.466Z,99862.56
2022-08-05T17:14:05.498Z,99870.00
2022-08-05T17:16:38.035Z,99869.19
2022-08-05T17:19:07.619Z,99873.31
2022-08-05T17:21:37.236Z,99871.78
2022-08-05T17:24:28.008Z,99873.56
2022-08-05T17:26:57.138Z,99875.41
2022-08-05T17:29:33.772Z,99874.66
2022-08-05T17:32:16.998Z,99875.72
2022-08-05T17:34:47.624Z,99882.47
2022-08-05T17:37:40.362Z,99876.13
2022-08-05T17:40:10.822Z,99880.38
2022-08-05T17:42:42.962Z,99878.94
2022-08-05T17:45:21.092Z,99879.16
2022-08-05T17:47:53.995Z,99871.97
2022-08-05T17:50:28.504Z,99877.00
2022-08-05T17:52:59.317Z,99877.94
2022-08-05T17:55:34.205Z,99887.47
2022-08-05T17:58:06.938Z,99882.28
2022-08-05T18:00:36.191Z,99884.03
2022-08-05T18:03:07.902Z,99882.13
2022-08-05T18:05:36.223Z,99876.19
2022-08-05T18:08:03.675Z,99876.19
2022-08-05T18:10:33.407Z,99889.75
2022-08-05T18:13:01.958Z,99883.03
2022-08-05T18:15:31.084Z,99886.34
2022-08-05T18:18:05.713Z,99886.41
2022-08-05T18:20:37.958Z,99886.41
2022-08-05T18:23:09.021Z,99892.97
2022-08-05T18:25:39.106Z,99901.75
2022-08-05T18:28:07.357Z,99899.81
2022-08-05T18:30:40.165Z,99901.25
2022-08-05T18:33:07.681Z,99896.50
2022-08-05T18:36:00.122Z,99900.78
2022-08-05T18:38:26.093Z,99903.38
2022-08-05T18:41:55.434Z,99903.09
2022-08-05T18:43:43.259Z,99902.41
2022-08-05T18:46:20.008Z,99902.47
2022-08-05T18:48:52.624Z,99896.84
2022-08-05T18:52:04.189Z,99900.22
2022-08-05T18:54:31.665Z,99893.94
2022-08-05T18:57:02.192Z,99902.00
2022-08-05T18:59:43.324Z,99897.16
2022-08-05T19:02:28.183Z,99895.16
2022-08-05T19:05:03.030Z,99894.00
2022-08-05T19:07:46.534Z,99901.41
2022-08-05T19:10:17.724Z,99898.22
2022-08-05T19:12:46.141Z,99900.50
2022-08-05T19:15:56.743Z,99895.09
2022-08-05T19:18:09.138Z,99897.22
2022-08-05T19:20:37.330Z,99900.63
2022-08-05T19:23:08.724Z,99893.94
2022-08-05T19:26:01.676Z,99905.28
2022-08-05T19:28:30.851Z,99903.16
2022-08-05T19:30:57.934Z,99901.91
2022-08-05T19:33:34.021Z,99896.56
2022-08-05T19:36:09.090Z,99906.31
2022-08-05T19:38:36.755Z,99901.78
2022-08-05T19:41:06.833Z,99901.78
2022-08-05T19:44:07.046Z,99897.69
2022-08-05T19:46:29.513Z,99899.72
2022-08-05T19:49:01.127Z,99900.97
2022-08-05T19:52:05.012Z,99909.16
2022-08-05T19:54:27.075Z,99901.47
2022-08-05T19:56:59.383Z,99894.16
2022-08-05T19:59:56.036Z,99906.78
2022-08-05T20:02:15.144Z,99903.59
2022-08-05T20:04:46.048Z,99902.38
2022-08-05T20:07:15.368Z,99891.78
2022-08-05T20:09:53.573Z,99893.47
2022-08-05T20:12:23.486Z,99894.34
2022-08-05T20:14:52.431Z,99886.63
2022-08-05T20:17:23.394Z,99889.88
2022-08-05T20:19:56.596Z,99888.25
2022-08-05T20:22:24.363Z,99886.22
2022-08-05T20:24:53.946Z,99889.50
2022-08-05T20:27:26.380Z,99889.09
2022-08-05T20:29:58.729Z,99883.84
2022-08-05T20:32:27.148Z,99881.06
2022-08-05T20:34:54.588Z,99883.09
2022-08-05T20:38:05.962Z,99878.56
2022-08-05T20:40:09.715Z,99879.41
2022-08-05T20:42:37.790Z,99874.56
2022-08-05T20:45:08.244Z,99875.41
2022-08-05T20:47:35.124Z,99874.25
2022-08-05T20:50:07.738Z,99878.97
2022-08-05T20:52:35.423Z,99882.28
2022-08-05T20:55:55.401Z,99876.25
2022-08-05T20:57:52.076Z,99882.44
2022-08-05T21:00:44.370Z,99879.19
2022-08-05T21:03:13.351Z,99878.44
2022-08-05T21:05:53.859Z,99878.97
2022-08-05T21:08:26.548Z,99874.84
2022-08-05T21:11:11.661Z,99885.06
2022-08-05T21:13:47.420Z,99875.28
2022-08-05T21:16:22.381Z,99873.69
2022-08-05T21:18:56.112Z,99874.44
2022-08-05T21:21:27.387Z,99868.72
2022-08-05T21:24:12.971Z,99874.03
2022-08-05T21:26:41.468Z,99880.31
2022-08-05T21:29:12.529Z,99876.47
2022-08-05T21:31:43.380Z,99875.81
2022-08-05T21:34:10.449Z,99882.91
2022-08-05T21:36:38.508Z,99871.63
2022-08-05T21:39:05.522Z,99867.22
2022-08-05T21:41:35.636Z,99868.16
2022-08-05T21:44:04.417Z,99868.44
2022-08-05T21:46:36.959Z,99880.47
2022-08-05T21:49:07.315Z,99882.09
2022-08-05T21:52:26.822Z,99878.63
2022-08-05T21:54:30.757Z,99883.63
2022-08-05T21:57:29.229Z,99880.00
2022-08-05T22:00:03.020Z,99882.78
2022-08-05T22:02:31.762Z,99880.25
2022-08-05T22:04:58.722Z,99876.09
2022-08-05T22:07:39.956Z,99879.72
2022-08-05T22:10:15.133Z,99871.94
2022-08-05T22:12:44.906Z,99876.81
2022-08-05T22:16:00.569Z,99879.66
2022-08-05T22:18:05.431Z,99875.63
2022-08-05T22:20:32.571Z,99883.00
2022-08-05T22:23:21.307Z,99878.47
2022-08-05T22:26:09.866Z,99874.81
2022-08-05T22:28:38.734Z,99874.44
2022-08-05T22:31:06.254Z,99876.88
2022-08-05T22:33:57.026Z,99874.78
2022-08-05T22:36:23.886Z,99876.81
2022-08-05T22:38:51.713Z,99884.16
2022-08-05T22:42:04.743Z,99878.56
2022-08-05T22:44:08.582Z,99884.63
2022-08-05T22:46:39.640Z,99890.72
2022-08-05T22:49:12.514Z,99888.28
2022-08-05T22:52:04.937Z,99881.78
2022-08-05T22:54:33.803Z,99878.16
2022-08-05T22:57:00.761Z,99883.44
2022-08-05T22:59:43.895Z,99883.47
2022-08-05T23:02:22.896Z,99877.84
2022-08-05T23:04:57.935Z,99881.97
2022-08-05T23:07:29.177Z,99877.94
2022-08-05T23:10:01.428Z,99882.00
2022-08-05T23:12:32.907Z,99882.41
2022-08-05T23:15:03.731Z,99878.06
2022-08-05T23:17:37.846Z,99874.38
2022-08-05T23:20:23.574Z,99882.50
2022-08-05T23:22:55.560Z,99883.75
2022-08-05T23:25:52.253Z,99877.22
2022-08-05T23:28:11.070Z,99880.91
2022-08-05T23:30:43.486Z,99887.84
2022-08-05T23:33:25.731Z,99887.03
2022-08-05T23:36:03.643Z,99886.28
2022-08-05T23:38:31.652Z,99891.19
2022-08-05T23:40:58.616Z,99890.41
2022-08-05T23:43:37.305Z,99893.72
2022-08-05T23:46:21.392Z,99889.22
2022-08-05T23:49:00.895Z,99897.34
2022-08-05T23:51:54.026Z,99887.56
2022-08-05T23:54:36.487Z,99894.50
2022-08-05T23:57:06.252Z,99887.19
